Time;durP1;ratioP1;P1;durP2;ratioP2;P2;SDS_P1;SDS_P2;PMS_P1;PMS_P2;Temp;Humidity;BMP_temperature;BMP_pressure;BME280_temperature;BME280_humidity;BME280_pressure;Samples;Min_cycle;Max_cycle;Signal;HPM_P1;HPM_P2
2022/09/15 00:02:09;;;;;;;6.10;1.10;;;;;;;14.97;93.97;99187.53;6218211;23;19997;-83
2022/09/15 00:04:35;;;;;;;5.35;1.10;;;;;;;14.93;93.42;99178.31;6217619;23;20024;-83
2022/09/15 00:07:01;;;;;;;7.10;0.80;;;;;;;15.00;93.36;99181.59;6217812;23;20011;-83
2022/09/15 00:09:26;;;;;;;4.22;0.68;;;;;;;15.04;94.01;99184.56;6217676;23;20008;-83
2022/09/15 00:11:52;;;;;;;6.90;1.17;;;;;;;15.01;94.58;99183.22;6217834;23;20000;-83
2022/09/15 00:14:17;;;;;;;5.57;1.27;;;;;;;14.81;93.78;99161.50;6216871;23;20023;-84
2022/09/15 00:16:43;;;;;;;8.07;1.10;;;;;;;14.85;93.53;99165.28;6217599;23;20017;-83
2022/09/15 00:19:10;;;;;;;7.55;1.10;;;;;;;14.89;93.20;99177.22;6217078;23;20028;-83
2022/09/15 00:21:39;;;;;;;5.18;0.90;;;;;;;14.77;93.24;99160.41;6192562;23;19993;-83
2022/09/15 00:24:05;;;;;;;3.00;0.70;;;;;;;14.83;92.62;99180.97;6217463;23;19992;-84
2022/09/15 00:26:31;;;;;;;5.78;1.05;;;;;;;14.74;92.81;99164.47;6216771;23;20043;-83
2022/09/15 00:28:58;;;;;;;6.45;0.95;;;;;;;14.83;92.69;99177.47;6243257;23;19993;-83
2022/09/15 00:31:26;;;;;;;5.10;1.02;;;;;;;14.80;92.50;99174.22;6211690;23;20012;-83
2022/09/15 00:33:53;;;;;;;4.28;0.90;;;;;;;14.82;92.50;99171.25;6212684;23;19988;-83
2022/09/15 00:36:20;;;;;;;7.03;1.15;;;;;;;14.88;93.22;99172.88;6213196;23;19996;-83
2022/09/15 00:38:46;;;;;;;7.00;1.10;;;;;;;14.90;93.10;99168.03;6212522;23;20009;-84
2022/09/15 00:41:13;;;;;;;6.97;0.90;;;;;;;14.76;93.16;99153.34;6212338;23;20013;-83
2022/09/15 00:43:50;;;;;;;7.53;0.90;;;;;;;14.84;92.75;99165.56;6211756;23;20009;-83
2022/09/15 00:46:19;;;;;;;7.00;1.25;;;;;;;14.86;92.76;99160.69;6212505;23;19997;-83
2022/09/15 00:48:52;;;;;;;5.60;0.80;;;;;;;14.78;93.50;99152.00;6212277;23;20005;-83
2022/09/15 00:51:22;;;;;;;3.72;0.95;;;;;;;14.76;92.77;99150.63;6212864;23;20009;-83
2022/09/15 00:59:02;;;;;;;5.38;0.93;;;;;;;13.57;93.37;98969.22;6212386;23;20080;-82
2022/09/15 01:20:14;;;;;;;7.35;0.70;;;;;;;13.63;91.61;99011.44;6234207;23;20005;-83
2022/09/15 01:23:17;;;;;;;2.45;0.60;;;;;;;13.08;91.61;98924.41;6243188;23;20048;-83
2022/09/15 01:25:56;;;;;;;4.47;0.73;;;;;;;14.23;91.97;99093.06;6217532;23;20008;-83
2022/09/15 01:28:43;;;;;;;4.15;0.90;;;;;;;14.53;91.68;99132.97;6242695;23;20180;-83
2022/09/15 01:31:28;;;;;;;4.45;0.77;;;;;;;14.49;91.75;99140.78;6242850;23;20004;-83
2022/09/15 01:34:05;;;;;;;2.45;0.77;;;;;;;14.49;91.37;99129.97;6242763;23;19995;-84
2022/09/15 01:36:51;;;;;;;3.63;0.60;;;;;;;14.48;91.42;99124.81;6219257;23;20019;-84
2022/09/15 01:39:25;;;;;;;3.58;0.60;;;;;;;14.43;91.38;99131.03;6244789;23;20016;-83
2022/09/15 01:41:56;;;;;;;5.75;0.70;;;;;;;14.33;91.96;99102.03;6244908;23;19989;-83
2022/09/15 01:44:33;;;;;;;3.92;0.95;;;;;;;14.50;91.40;99123.53;6218839;23;19992;-82
2022/09/15 01:47:04;;;;;;;6.95;0.80;;;;;;;14.50;91.17;99122.66;6219148;23;20024;-82
2022/09/15 01:49:37;;;;;;;6.90;0.95;;;;;;;14.24;90.88;99086.59;6244534;23;19984;-82
2022/09/15 01:52:04;;;;;;;4.40;0.73;;;;;;;14.22;90.93;99081.44;6217792;23;20021;-83
2022/09/15 01:54:35;;;;;;;5.35;0.95;;;;;;;14.56;91.13;99129.75;6244541;23;19989;-83
2022/09/15 01:57:02;;;;;;;4.13;0.60;;;;;;;14.39;90.73;99104.75;6244099;23;19997;-83
2022/09/15 01:59:28;;;;;;;7.93;1.42;;;;;;;14.50;89.92;99123.53;6218815;23;20008;-83
2022/09/15 02:02:02;;;;;;;3.65;0.70;;;;;;;14.52;89.91;99121.34;6218565;23;19997;-83
2022/09/15 02:04:45;;;;;;;4.13;0.63;;;;;;;14.54;89.26;99121.09;6244474;23;20000;-84
2022/09/15 02:07:37;;;;;;;2.78;0.70;;;;;;;14.47;89.42;99124.03;6212527;23;20004;-82
2022/09/15 02:10:20;;;;;;;4.38;0.70;;;;;;;14.43;88.92;99112.06;6218334;23;20068;-84
2022/09/15 02:12:51;;;;;;;3.05;0.50;;;;;;;14.46;89.73;99111.53;6244107;23;20001;-82
2022/09/15 02:15:28;;;;;;;6.05;0.70;;;;;;;14.37;89.76;99091.53;6243529;23;20048;-83
2022/09/15 02:17:56;;;;;;;3.80;0.60;;;;;;;14.46;90.46;99108.84;6244620;23;20024;-82
2022/09/15 02:20:42;;;;;;;4.07;0.68;;;;;;;14.30;90.64;99085.50;6218888;23;20001;-82
2022/09/15 02:23:26;;;;;;;6.80;1.13;;;;;;;14.37;91.39;99107.75;6219259;23;19997;-83
2022/09/15 02:26:03;;;;;;;3.65;0.70;;;;;;;14.29;91.52;99100.94;6218733;23;19989;-83
2022/09/15 02:28:33;;;;;;;4.35;0.77;;;;;;;14.31;91.91;99111.50;6219747;23;19985;-84
2022/09/15 02:31:01;;;;;;;4.40;0.73;;;;;;;14.08;92.65;99067.59;6244045;23;19996;-84
2022/09/15 02:33:31;;;;;;;4.03;0.73;;;;;;;14.22;92.55;99103.09;6244221;23;19988;-83
2022/09/15 02:35:58;;;;;;;5.00;1.00;;;;;;;14.05;92.71;99073.53;6243231;23;19980;-84
2022/09/15 02:38:28;;;;;;;4.10;0.60;;;;;;;14.09;93.05;99090.03;6243889;23;20016;-83
2022/09/15 02:40:55;;;;;;;5.28;0.70;;;;;;;14.13;93.07;99098.44;6218159;23;19993;-84
2022/09/15 02:43:22;;;;;;;4.72;0.60;;;;;;;13.91;93.07;99055.34;6243893;23;20009;-84
2022/09/15 02:45:48;;;;;;;4.78;0.70;;;;;;;14.15;93.40;99099.81;6217559;23;19996;-83
2022/09/15 02:48:14;;;;;;;1.95;0.50;;;;;;;14.00;93.32;99075.38;6218824;23;20035;-83
2022/09/15 02:50:40;;;;;;;2.28;0.60;;;;;;;14.12;92.97;99103.03;6243897;23;19992;-83
2022/09/15 02:53:06;;;;;;;3.05;0.68;;;;;;;14.13;92.66;99095.72;6244376;23;20024;-83
2022/09/15 02:55:32;;;;;;;3.25;0.90;;;;;;;14.13;92.35;99090.31;6218600;23;20004;-84
2022/09/15 02:57:58;;;;;;;4.50;0.65;;;;;;;14.16;92.34;99098.72;6218126;23;20020;-84
2022/09/15 03:00:24;;;;;;;2.95;0.75;;;;;;;14.16;92.54;99095.22;6218627;23;20001;-83
2022/09/15 03:02:52;;;;;;;2.70;0.60;;;;;;;14.14;92.61;99076.56;6243219;23;19989;-83
2022/09/15 03:05:28;;;;;;;3.58;0.73;;;;;;;14.08;92.52;99083.00;6244160;23;20004;-83
2022/09/15 03:07:54;;;;;;;5.13;0.70;;;;;;;14.08;93.47;99078.41;6217574;23;20000;-84
2022/09/15 03:10:21;;;;;;;2.05;0.50;;;;;;;14.02;93.38;99086.78;6218388;23;19993;-84
2022/09/15 03:12:49;;;;;;;6.22;0.80;;;;;;;13.95;93.90;99067.28;6218247;23;20043;-84
2022/09/15 03:15:17;;;;;;;3.33;0.70;;;;;;;13.83;93.89;99049.34;6218539;23;20012;-83
2022/09/15 03:17:45;;;;;;;2.55;0.80;;;;;;;14.01;94.42;99074.34;6243789;23;20009;-81
2022/09/15 03:20:13;;;;;;;4.35;0.60;;;;;;;13.84;94.92;99056.41;6244166;23;19999;-83
2022/09/15 03:22:39;;;;;;;4.18;0.77;;;;;;;13.89;95.26;99074.53;6243135;23;20019;-84
2022/09/15 03:25:06;;;;;;;1.08;0.45;;;;;;;13.83;95.87;99065.59;6217970;23;20017;-83
2022/09/15 03:27:33;;;;;;;2.60;0.52;;;;;;;13.85;96.49;99063.44;6218171;23;20059;-83
2022/09/15 03:29:58;;;;;;;3.67;0.60;;;;;;;13.89;96.83;99061.03;6216948;23;20020;-83
2022/09/15 03:32:24;;;;;;;3.40;0.60;;;;;;;13.91;97.45;99050.75;6193187;23;20016;-83
2022/09/15 03:34:49;;;;;;;2.80;0.60;;;;;;;13.94;97.69;99055.66;6193039;23;20000;-83
2022/09/15 03:37:15;;;;;;;1.73;0.68;;;;;;;13.63;98.02;99004.13;6243078;23;20040;-83
2022/09/15 03:39:40;;;;;;;4.88;0.70;;;;;;;13.96;98.83;99045.38;6243286;23;20019;-83
2022/09/15 03:42:07;;;;;;;2.97;0.60;;;;;;;14.07;99.57;99057.03;6217663;23;20056;-81
2022/09/15 03:44:33;;;;;;;4.80;0.80;;;;;;;14.14;100.00;99056.78;6217868;23;20000;-82
2022/09/15 03:46:58;;;;;;;3.20;0.65;;;;;;;14.22;100.00;99051.69;6243223;23;19992;-82
2022/09/15 03:57:09;;;;;;;4.93;0.70;;;;;;;13.91;99.83;98953.44;6235115;23;20303;-83
2022/09/15 03:59:35;;;;;;;4.93;0.77;;;;;;;13.59;99.84;98892.22;6215551;23;20000;-83
2022/09/15 04:02:01;;;;;;;2.55;0.50;;;;;;;13.21;100.00;98806.16;6241534;23;20008;-82
2022/09/15 04:04:27;;;;;;;4.38;0.60;;;;;;;13.18;100.00;98799.44;6241136;23;20004;-83
2022/09/15 04:06:53;;;;;;;2.80;0.60;;;;;;;14.61;100.00;99017.97;6215062;23;20327;-81
2022/09/15 04:09:20;;;;;;;2.65;0.80;;;;;;;13.13;100.00;98797.50;6214293;23;20007;-82
2022/09/15 04:11:46;;;;;;;3.50;0.55;;;;;;;13.49;100.00;98845.47;6197042;23;20012;-75
2022/09/15 04:14:11;;;;;;;3.80;0.60;;;;;;;13.28;100.00;98795.97;6242749;23;19997;-85
2022/09/15 04:26:58;;;;;;;6.60;1.10;;;;;;;15.14;85.95;99054.53;6195406;23;20017;-81
2022/09/15 04:29:23;;;;;;;4.28;0.70;;;;;;;13.16;72.35;98839.38;6213178;23;20016;-82
2022/09/15 04:31:51;;;;;;;3.05;0.65;;;;;;;12.75;66.51;98803.28;6215849;23;19996;-82
2022/09/15 04:34:17;;;;;;;12.70;1.42;;;;;;;13.37;68.08;98949.16;6240333;23;20000;-82
2022/09/15 04:36:44;;;;;;;7.35;0.60;;;;;;;13.29;78.67;98930.75;6216702;23;19996;-80
2022/09/15 04:39:09;;;;;;;7.07;1.08;;;;;;;14.28;86.50;99074.16;6216943;23;20001;-83
2022/09/15 04:41:34;;;;;;;9.38;0.95;;;;;;;14.04;92.19;99079.22;6241348;23;20035;-83
2022/09/15 04:44:00;;;;;;;4.38;0.50;;;;;;;13.84;78.98;99093.44;6216916;23;19993;-84
2022/09/15 04:49:01;;;;;;;8.05;1.30;;;;;;;12.22;90.71;98882.25;6190397;23;20353;-82
2022/09/15 04:51:27;;;;;;;6.70;0.70;;;;;;;12.81;92.10;98975.75;6241436;23;20072;-81
2022/09/15 04:53:53;;;;;;;6.00;0.80;;;;;;;13.10;96.76;99086.97;6241710;23;20028;-84
2022/09/15 05:01:33;;;;;;;4.47;0.80;;;;;;;11.19;91.47;98852.59;6213342;23;20027;-84
2022/09/15 05:24:40;;;;;;;13.25;1.52;;;;;;;13.57;84.33;99159.22;6219367;23;20004;-82
2022/09/15 05:27:06;;;;;;;2.30;0.40;;;;;;;13.42;76.93;99140.19;6216723;23;20019;-81
2022/09/15 05:29:31;;;;;;;2.55;0.40;;;;;;;12.94;78.21;99079.81;6190175;23;20082;-81
2022/09/15 05:31:56;;;;;;;3.53;0.90;;;;;;;12.89;78.26;99101.38;6218571;23;19993;-83
2022/09/15 05:34:22;;;;;;;6.00;0.50;;;;;;;12.60;81.64;99103.50;6218349;23;19996;-81
2022/09/15 05:36:47;;;;;;;1.52;0.35;;;;;;;12.52;82.70;99077.81;6208075;23;20310;-80
2022/09/15 05:39:12;;;;;;;1.77;0.38;;;;;;;12.51;84.89;99095.03;6208163;23;20004;-81
2022/09/15 05:41:38;;;;;;;4.30;1.08;;;;;;;12.22;85.22;99045.94;6234825;23;20013;-81
2022/09/15 05:44:03;;;;;;;2.55;0.30;;;;;;;12.28;87.48;99071.84;6207136;23;20406;-80
2022/09/15 05:46:28;;;;;;;0.43;0.30;;;;;;;12.28;84.41;99071.06;6201440;23;20008;-79
2022/09/15 05:48:56;;;;;;;0.55;0.20;;;;;;;12.65;84.63;99107.06;6201631;23;20008;-80
2022/09/15 05:51:22;;;;;;;0.95;0.32;;;;;;;12.69;84.74;99097.41;6231313;23;20011;-80
2022/09/15 05:53:47;;;;;;;0.52;0.25;;;;;;;12.72;85.45;99111.47;6206152;23;20013;-80
2022/09/15 05:56:14;;;;;;;0.82;0.20;;;;;;;12.80;84.08;99087.50;6202391;23;20000;-80
2022/09/15 05:58:42;;;;;;;0.30;0.20;;;;;;;12.82;85.20;99079.97;6202673;23;20299;-80
2022/09/15 06:01:23;;;;;;;4.00;0.38;;;;;;;12.84;85.25;99087.81;6203048;23;20018;-81
2022/09/15 06:03:48;;;;;;;2.22;0.30;;;;;;;12.94;83.79;99069.00;6202941;23;20319;-79
2022/09/15 06:06:14;;;;;;;1.73;0.30;;;;;;;13.01;85.20;99075.00;6181836;23;20016;-80
2022/09/15 06:08:43;;;;;;;0.98;0.35;;;;;;;13.02;85.43;99083.94;6234951;23;20052;-79
2022/09/15 06:11:11;;;;;;;1.35;0.30;;;;;;;12.89;86.12;99088.69;6227159;23;20008;-79
2022/09/15 06:13:38;;;;;;;4.90;0.75;;;;;;;12.93;87.20;99091.69;6201045;23;20012;-78
2022/09/15 06:16:07;;;;;;;0.45;0.30;;;;;;;13.03;85.73;99107.16;6194932;23;20011;-78
2022/09/15 06:18:34;;;;;;;1.30;0.30;;;;;;;13.25;83.13;99107.91;6191888;23;20000;-78
2022/09/15 06:21:08;;;;;;;0.47;0.35;;;;;;;13.42;82.51;99107.78;6191224;23;20012;-78
2022/09/15 06:23:34;;;;;;;1.52;0.30;;;;;;;13.52;83.91;99102.44;6216871;23;20036;-77
2022/09/15 06:26:04;;;;;;;0.60;0.30;;;;;;;13.58;83.51;99112.22;6165300;23;20027;-78
2022/09/15 06:28:29;;;;;;;1.27;0.30;;;;;;;13.74;84.72;99104.19;6190765;23;20009;-78
2022/09/15 06:30:55;;;;;;;1.52;0.30;;;;;;;13.83;86.08;99110.72;6164981;23;20372;-78
2022/09/15 06:33:20;;;;;;;1.65;0.38;;;;;;;13.95;85.87;99110.53;6164521;23;20059;-78
2022/09/15 06:35:45;;;;;;;3.35;0.40;;;;;;;14.16;86.29;99117.66;6190358;23;20008;-78
2022/09/15 06:38:11;;;;;;;2.17;0.47;;;;;;;14.18;86.61;99093.06;6165053;23;20362;-78
2022/09/15 06:40:36;;;;;;;1.48;0.50;;;;;;;14.41;89.52;99108.03;6190128;23;20048;-78
2022/09/15 06:43:02;;;;;;;3.05;0.60;;;;;;;14.56;89.35;99108.91;6216345;23;20009;-78
2022/09/15 06:45:29;;;;;;;2.15;0.50;;;;;;;14.76;88.79;99105.41;6190183;23;20008;-78
2022/09/15 06:47:54;;;;;;;2.08;0.40;;;;;;;14.83;88.67;99116.00;6217271;23;20024;-78
2022/09/15 06:50:20;;;;;;;1.20;0.30;;;;;;;14.79;91.28;99109.50;6189549;23;20092;-77
2022/09/15 06:52:46;;;;;;;3.22;0.40;;;;;;;14.73;91.23;99102.44;6191365;23;20054;-79
2022/09/15 06:55:11;;;;;;;2.17;0.38;;;;;;;14.85;88.75;99121.16;6190368;23;20044;-78
2022/09/15 06:57:36;;;;;;;2.30;0.30;;;;;;;14.85;88.59;99127.38;6191017;23;20005;-78
2022/09/15 07:00:04;;;;;;;3.28;0.43;;;;;;;14.93;90.53;99134.16;6166461;23;20403;-78
2022/09/15 07:02:30;;;;;;;1.48;0.32;;;;;;;14.92;91.23;99136.06;6217715;23;20001;-78
2022/09/15 07:04:55;;;;;;;1.83;0.60;;;;;;;14.97;93.57;99133.38;6216818;23;20011;-78
2022/09/15 07:07:21;;;;;;;0.60;0.40;;;;;;;14.85;94.60;99113.03;6189744;23;20433;-78
2022/09/15 07:09:46;;;;;;;1.98;0.50;;;;;;;15.10;95.79;99142.03;6168194;23;20087;-78
2022/09/15 07:12:11;;;;;;;4.80;0.60;;;;;;;15.10;96.79;99132.03;6166788;23;20015;-78
2022/09/15 07:14:37;;;;;;;1.98;0.50;;;;;;;15.03;97.63;99134.16;6166591;23;20303;-79
2022/09/15 07:17:02;;;;;;;2.83;0.60;;;;;;;15.08;97.85;99134.19;6193294;23;20090;-78
2022/09/15 07:19:27;;;;;;;1.15;0.60;;;;;;;15.09;97.39;99140.41;6191516;23;20430;-78
2022/09/15 07:21:53;;;;;;;1.58;0.40;;;;;;;15.06;97.50;99135.53;6192845;23;20022;-79
2022/09/15 07:24:19;;;;;;;3.83;0.60;;;;;;;15.18;97.38;99138.81;6162515;23;20029;-79
2022/09/15 07:26:44;;;;;;;1.17;0.60;;;;;;;15.14;98.25;99145.84;6189469;23;20100;-79
2022/09/15 07:29:09;;;;;;;3.58;0.88;;;;;;;15.18;98.63;99141.50;6192008;23;20061;-79
2022/09/15 07:31:37;;;;;;;0.93;0.50;;;;;;;15.20;98.57;99144.78;6165640;23;20013;-78
2022/09/15 07:34:03;;;;;;;3.95;0.60;;;;;;;15.29;97.90;99137.72;6192434;23;20027;-79
2022/09/15 07:36:30;;;;;;;3.72;0.60;;;;;;;15.52;98.23;99149.91;6192572;23;20091;-79
2022/09/15 07:38:55;;;;;;;1.10;0.40;;;;;;;15.41;99.01;99148.28;6191148;23;20035;-79
2022/09/15 07:41:24;;;;;;;1.08;0.68;;;;;;;15.29;99.35;99140.41;6196189;23;20028;-79
2022/09/15 07:43:51;;;;;;;5.53;0.85;;;;;;;15.32;100.00;99145.31;6193446;23;20075;-79
2022/09/15 07:46:18;;;;;;;1.35;0.68;;;;;;;15.18;100.00;99155.06;6196937;23;20011;-79
2022/09/15 07:48:48;;;;;;;3.85;0.60;;;;;;;15.01;100.00;99139.88;6196714;23;20092;-79
2022/09/15 07:51:15;;;;;;;3.13;0.70;;;;;;;15.16;99.67;99144.47;6196193;23;20008;-78
2022/09/15 07:53:41;;;;;;;1.27;0.40;;;;;;;15.09;99.50;99137.69;6196392;23;20013;-79
2022/09/15 07:56:07;;;;;;;4.00;0.45;;;;;;;15.22;99.31;99158.84;6193846;23;19997;-78
2022/09/15 07:58:33;;;;;;;2.17;0.55;;;;;;;15.11;98.05;99154.50;6192087;23;20036;-79
2022/09/15 08:01:06;;;;;;;1.25;0.40;;;;;;;15.02;98.37;99149.59;6169760;23;20005;-79
2022/09/15 08:03:32;;;;;;;1.95;0.40;;;;;;;14.98;98.68;99159.38;6189901;23;20036;-79
2022/09/15 08:05:58;;;;;;;1.98;0.50;;;;;;;14.95;98.66;99145.53;6194144;23;20340;-78
2022/09/15 08:08:24;;;;;;;1.40;0.40;;;;;;;14.95;99.63;99150.97;6180386;23;20020;-78
2022/09/15 08:10:49;;;;;;;1.40;0.55;;;;;;;14.85;97.77;99149.03;6205179;23;20049;-79
2022/09/15 08:13:15;;;;;;;4.55;0.30;;;;;;;14.88;96.47;99161.25;6195733;23;20066;-79
2022/09/15 08:15:40;;;;;;;0.75;0.40;;;;;;;14.98;94.36;99169.38;6167402;23;20052;-79
2022/09/15 08:18:06;;;;;;;1.17;0.40;;;;;;;15.10;94.60;99163.69;6188730;23;20017;-82
2022/09/15 08:20:32;;;;;;;1.33;0.40;;;;;;;15.20;94.34;99171.88;6187771;23;20001;-82
2022/09/15 08:22:57;;;;;;;1.63;0.40;;;;;;;14.95;95.81;99173.44;6185696;23;20009;-81
2022/09/15 08:25:23;;;;;;;1.98;0.40;;;;;;;14.82;96.27;99165.00;6211136;23;20028;-82
2022/09/15 08:27:49;;;;;;;0.70;0.40;;;;;;;14.99;93.48;99171.00;6166556;23;20013;-82
2022/09/15 08:30:14;;;;;;;0.40;0.30;;;;;;;15.05;90.48;99169.94;6190186;23;20327;-82
2022/09/15 08:32:40;;;;;;;1.50;0.32;;;;;;;15.02;86.63;99173.19;6171415;23;20016;-80
2022/09/15 08:35:07;;;;;;;0.50;0.30;;;;;;;15.11;83.92;99187.84;6173405;23;20032;-79
2022/09/15 08:37:33;;;;;;;1.05;0.30;;;;;;;15.31;82.99;99176.22;6171840;23;20029;-79
2022/09/15 08:39:58;;;;;;;1.70;0.50;;;;;;;15.25;82.75;99175.38;6196956;23;20029;-79
2022/09/15 08:42:25;;;;;;;1.38;0.32;;;;;;;15.32;81.55;99183.25;6197365;23;20028;-79
2022/09/15 08:45:01;;;;;;;0.63;0.30;;;;;;;15.45;81.97;99154.78;6196930;23;20072;-79
2022/09/15 08:47:32;;;;;;;1.10;0.38;;;;;;;15.67;82.22;99185.19;6196984;23;20154;-79
2022/09/15 08:50:09;;;;;;;1.60;0.20;;;;;;;15.73;81.18;99183.28;6223647;23;20004;-79
2022/09/15 08:52:43;;;;;;;0.30;0.30;;;;;;;15.68;79.74;99180.56;6194410;23;20357;-79
2022/09/15 08:55:35;;;;;;;3.40;1.20;;;;;;;15.59;80.31;99187.59;6193462;23;20016;-78
2022/09/15 08:58:01;;;;;;;0.40;0.30;;;;;;;15.53;79.43;99175.94;6219284;23;20372;-79
2022/09/15 09:00:28;;;;;;;0.73;0.30;;;;;;;15.60;80.67;99184.63;6193366;23;20012;-79
2022/09/15 09:03:06;;;;;;;0.80;0.38;;;;;;;15.61;81.16;99182.72;6220711;23;19996;-79
2022/09/15 09:05:48;;;;;;;2.33;0.50;;;;;;;15.75;81.20;99189.22;6220493;23;20000;-79
2022/09/15 09:08:30;;;;;;;2.72;0.52;;;;;;;15.72;82.48;99170.78;6196597;23;20034;-79
2022/09/15 09:11:22;;;;;;;1.23;0.40;;;;;;;15.61;82.13;99182.72;6218949;23;20004;-78
2022/09/15 09:14:17;;;;;;;0.75;0.30;;;;;;;15.65;85.03;99192.72;6185945;23;20001;-79
2022/09/15 09:16:58;;;;;;;1.15;0.30;;;;;;;15.56;85.23;99198.97;6209441;23;20070;-79
2022/09/15 09:20:01;;;;;;;0.95;0.50;;;;;;;15.35;86.04;99193.53;6217916;23;20008;-79
2022/09/15 09:22:33;;;;;;;1.33;0.55;;;;;;;15.25;87.98;99204.38;6218679;23;20012;-79
2022/09/15 09:25:01;;;;;;;2.40;0.30;;;;;;;15.22;88.64;99202.19;6187684;23;20486;-79
2022/09/15 09:27:29;;;;;;;2.72;0.60;;;;;;;14.95;89.06;99165.31;6189453;23;20084;-79
2022/09/15 09:30:19;;;;;;;0.60;0.35;;;;;;;15.02;90.19;99178.59;6188945;23;20526;-78
2022/09/15 09:32:53;;;;;;;3.35;0.40;;;;;;;15.20;90.70;99196.25;6188577;23;20005;-79
2022/09/15 09:35:47;;;;;;;1.67;0.22;;;;;;;15.19;88.72;99195.41;6189234;23;20001;-79
2022/09/15 09:38:42;;;;;;;0.70;0.30;;;;;;;15.02;87.34;99174.00;6187266;23;20005;-79
2022/09/15 09:41:13;;;;;;;0.85;0.30;;;;;;;15.11;87.22;99176.19;6195692;23;20009;-79
2022/09/15 09:43:42;;;;;;;0.80;0.30;;;;;;;15.30;86.67;99204.41;6193399;23;20020;-79
2022/09/15 09:46:15;;;;;;;1.00;0.40;;;;;;;15.39;87.38;99199.22;6190132;23;20017;-78
2022/09/15 09:48:51;;;;;;;1.40;0.32;;;;;;;15.32;85.68;99161.56;6191635;23;20061;-79
2022/09/15 09:51:33;;;;;;;0.90;0.30;;;;;;;15.61;85.00;99209.81;6187019;23;20001;-79
2022/09/15 09:54:15;;;;;;;2.92;0.45;;;;;;;15.68;85.19;99196.84;6191978;23;20013;-80
2022/09/15 09:56:41;;;;;;;0.75;0.35;;;;;;;15.61;86.26;99190.84;6192699;23;20013;-79
2022/09/15 09:59:34;;;;;;;1.10;0.35;;;;;;;15.80;86.09;99204.72;6195700;23;20005;-80
2022/09/15 10:02:17;;;;;;;1.05;0.32;;;;;;;15.80;85.89;99200.09;6194828;23;20071;-79
2022/09/15 10:04:49;;;;;;;1.10;0.40;;;;;;;15.65;83.32;99191.94;6194428;23;20013;-79
2022/09/15 10:07:17;;;;;;;3.13;0.40;;;;;;;15.79;84.78;99201.16;6192005;23;20072;-79
2022/09/15 10:09:56;;;;;;;4.88;0.32;;;;;;;15.77;86.12;99181.66;6195267;23;20015;-80
2022/09/15 10:12:28;;;;;;;1.27;0.40;;;;;;;15.86;86.61;99200.88;6194994;23;20001;-79
2022/09/15 10:14:57;;;;;;;2.92;0.40;;;;;;;15.89;85.20;99208.47;6197226;23;20015;-79
2022/09/15 10:17:27;;;;;;;1.13;0.40;;;;;;;15.85;86.77;99181.09;6194927;23;20020;-79
2022/09/15 10:19:54;;;;;;;0.75;0.30;;;;;;;16.04;86.24;99207.66;6195959;23;20065;-80
2022/09/15 10:22:38;;;;;;;0.88;0.32;;;;;;;15.86;85.81;99185.44;6194918;23;20067;-80
2022/09/15 10:25:19;;;;;;;3.85;0.40;;;;;;;15.88;84.28;99207.66;6213938;23;20023;-79
2022/09/15 10:28:24;;;;;;;0.85;0.30;;;;;;;15.77;85.06;99208.78;6224198;23;20184;-79
2022/09/15 10:31:04;;;;;;;1.75;0.50;;;;;;;15.83;85.20;99204.97;6196813;23;20386;-79
2022/09/15 10:33:29;;;;;;;1.15;0.40;;;;;;;15.87;85.41;99200.63;6196987;23;20016;-78
2022/09/15 10:36:02;;;;;;;2.55;0.40;;;;;;;15.90;84.91;99201.97;6222782;23;20008;-80
2022/09/15 10:38:48;;;;;;;0.50;0.30;;;;;;;15.91;85.74;99198.97;6197250;23;20000;-80
2022/09/15 10:41:20;;;;;;;1.02;0.50;;;;;;;15.92;83.89;99187.03;6224251;23;20000;-79
2022/09/15 10:44:16;;;;;;;1.77;0.38;;;;;;;15.90;83.71;99204.69;6223579;23;20001;-79
2022/09/15 10:47:01;;;;;;;2.08;0.30;;;;;;;15.91;85.38;99190.84;6223981;23;20000;-79
2022/09/15 10:49:39;;;;;;;;;;;;;;;15.89;82.27;99209.31;6198546;23;20008;-79
2022/09/15 10:52:29;;;;;;;1.58;0.45;;;;;;;15.84;82.81;99203.06;6195146;23;19904;-79
2022/09/15 10:55:32;;;;;;;1.35;0.32;;;;;;;15.92;82.39;99206.03;6196210;23;20064;-79
2022/09/15 10:58:34;;;;;;;0.68;0.30;;;;;;;15.85;81.74;99208.22;6197605;23;20338;-78
2022/09/15 11:01:10;;;;;;;2.28;0.40;;;;;;;15.84;79.32;99211.22;6223352;23;20020;-80
2022/09/15 11:04:00;;;;;;;2.20;0.40;;;;;;;15.85;82.52;99207.41;6224823;23;19996;-79
2022/09/15 11:06:52;;;;;;;3.05;0.30;;;;;;;16.00;83.24;99210.09;6225068;23;20016;-79
2022/09/15 11:09:24;;;;;;;0.95;0.22;;;;;;;15.77;83.98;99183.56;6223395;23;20031;-79
2022/09/15 11:12:05;;;;;;;1.75;0.38;;;;;;;15.76;81.30;99188.16;6197782;23;20004;-79
2022/09/15 11:14:36;;;;;;;0.98;0.40;;;;;;;16.02;79.86;99216.06;6198818;23;20004;-80
2022/09/15 11:17:35;;;;;;;0.70;0.30;;;;;;;15.94;80.56;99209.28;6226020;23;19992;-80
2022/09/15 11:20:51;;;;;;;0.60;0.30;;;;;;;16.06;79.87;99208.19;6227485;23;20280;-79
2022/09/15 11:23:35;;;;;;;2.00;0.40;;;;;;;16.25;80.24;99217.38;6150123;23;20044;-80
2022/09/15 11:26:11;;;;;;;3.05;0.40;;;;;;;15.87;80.84;99178.13;6199457;23;20155;-79
2022/09/15 11:28:51;;;;;;;2.63;0.55;;;;;;;16.05;79.13;99217.41;6199326;23;20016;-79
2022/09/15 11:31:37;;;;;;;1.38;0.28;;;;;;;16.05;78.16;99212.78;6226404;23;20000;-79
2022/09/15 11:34:08;;;;;;;1.42;0.28;;;;;;;16.34;77.74;99221.16;6200073;23;20000;-80
2022/09/15 11:36:53;;;;;;;2.95;0.40;;;;;;;16.26;78.35;99208.16;6200895;23;20000;-80
2022/09/15 11:39:27;;;;;;;2.17;0.32;;;;;;;16.26;79.81;99219.00;6200643;23;20005;-79
2022/09/15 11:42:23;;;;;;;1.73;0.40;;;;;;;16.10;79.16;99222.84;6229515;23;20028;-79
2022/09/15 11:44:49;;;;;;;1.55;0.40;;;;;;;16.11;81.13;99219.03;6210317;23;20482;-79
2022/09/15 11:47:15;;;;;;;1.27;0.30;;;;;;;15.91;81.76;99217.16;6205691;23;20009;-79
2022/09/15 11:49:52;;;;;;;2.30;0.40;;;;;;;16.07;81.36;99224.19;6228087;23;20410;-80
2022/09/15 11:52:50;;;;;;;0.50;0.28;;;;;;;16.03;78.57;99219.59;6224440;23;19996;-78
2022/09/15 11:55:36;;;;;;;1.52;0.70;;;;;;;16.04;79.93;99218.50;6225165;23;20000;-80
2022/09/15 11:58:22;;;;;;;0.90;0.38;;;;;;;15.87;79.65;99202.53;6228611;23;20001;-80
2022/09/15 12:01:05;;;;;;;1.10;0.30;;;;;;;16.07;78.62;99221.47;6226565;23;20000;-79
2022/09/15 12:03:46;;;;;;;2.30;0.47;;;;;;;16.19;79.00;99213.03;6202796;23;19997;-79
2022/09/15 12:06:17;;;;;;;1.70;0.30;;;;;;;16.35;75.59;99208.38;6202169;23;20015;-80
2022/09/15 12:08:48;;;;;;;1.45;0.20;;;;;;;16.43;73.39;99213.25;6225924;23;20028;-79
2022/09/15 12:11:20;;;;;;;3.10;0.32;;;;;;;16.34;71.33;99191.28;6228486;23;20560;-79
2022/09/15 12:13:46;;;;;;;1.02;0.30;;;;;;;16.60;72.11;99208.31;6201280;23;20008;-80
2022/09/15 12:16:13;;;;;;;1.50;0.30;;;;;;;16.90;71.25;99220.97;6203536;23;20027;-79
2022/09/15 12:18:45;;;;;;;0.35;0.20;;;;;;;16.74;70.05;99211.22;6175834;23;20016;-79
2022/09/15 12:21:28;;;;;;;0.60;0.20;;;;;;;16.40;71.96;99206.47;6229337;23;20028;-80
2022/09/15 12:23:58;;;;;;;1.63;0.30;;;;;;;16.45;73.20;99200.19;6202178;23;20024;-80
2022/09/15 12:26:25;;;;;;;2.50;0.50;;;;;;;16.63;72.71;99223.22;6230033;23;20008;-80
2022/09/15 12:29:01;;;;;;;1.77;0.30;;;;;;;16.58;74.10;99225.97;6203629;23;20008;-80
2022/09/15 12:31:37;;;;;;;1.15;0.30;;;;;;;16.40;72.60;99213.81;6201483;23;20004;-78
2022/09/15 12:34:24;;;;;;;0.90;0.30;;;;;;;16.51;71.80;99226.25;6229253;23;20018;-81
2022/09/15 12:37:05;;;;;;;1.73;0.30;;;;;;;16.41;72.28;99194.50;6203197;23;20000;-79
2022/09/15 12:39:44;;;;;;;2.15;0.30;;;;;;;16.77;72.12;99218.84;6203353;23;20019;-79
2022/09/15 12:42:17;;;;;;;1.42;0.25;;;;;;;16.85;72.40;99220.16;6230405;23;20035;-80
2022/09/15 12:44:59;;;;;;;2.33;0.40;;;;;;;16.76;70.24;99205.56;6204100;23;20395;-81
2022/09/15 12:47:38;;;;;;;1.15;0.40;;;;;;;16.73;69.86;99196.03;6203616;23;20035;-80
2022/09/15 12:50:15;;;;;;;2.63;0.40;;;;;;;16.70;71.60;99220.22;6228439;23;20031;-80
2022/09/15 12:52:48;;;;;;;2.13;0.40;;;;;;;16.66;71.36;99217.25;6203985;23;20009;-80
2022/09/15 12:55:22;;;;;;;1.70;0.30;;;;;;;16.58;72.09;99224.03;6206876;23;20012;-80
2022/09/15 12:57:51;;;;;;;2.50;0.35;;;;;;;16.49;71.84;99219.47;6236811;23;20035;-79
2022/09/15 13:00:26;;;;;;;1.08;0.30;;;;;;;16.72;70.41;99224.28;6232795;23;20008;-79
2022/09/15 13:02:52;;;;;;;2.08;0.40;;;;;;;16.87;69.88;99220.72;6203753;23;20035;-80
2022/09/15 13:05:40;;;;;;;2.03;0.30;;;;;;;16.79;67.17;99211.25;6227592;23;20015;-80
2022/09/15 13:08:29;;;;;;;2.45;0.30;;;;;;;17.13;66.47;99221.38;6210547;23;20406;-79